Time;durP1;ratioP1;P1;durP2;ratioP2;P2;SDS_P1;SDS_P2;PMS_P1;PMS_P2;Temp;Humidity;BMP_temperature;BMP_pressure;BME280_temperature;BME280_humidity;BME280_pressure;Samples;Min_cycle;Max_cycle;Signal;HPM_P1;HPM_P2
2023/12/09 00:01:57;;;;;;;3.20;1.92;;;;;;;;;;5076282;28;20020;-22
2023/12/09 00:04:23;;;;;;;7.20;2.20;;;;;;;;;;5075898;28;20430;-19
2023/12/09 00:06:50;;;;;;;5.07;2.03;;;;;;;;;;5076259;28;20069;-20
2023/12/09 00:09:18;;;;;;;3.90;1.83;;;;;;;;;;5076233;28;20036;-19
2023/12/09 00:11:44;;;;;;;4.68;1.83;;;;;;;;;;5075861;28;20451;-23
2023/12/09 00:14:10;;;;;;;5.93;1.70;;;;;;;;;;5075789;28;20053;-20
2023/12/09 00:16:37;;;;;;;2.40;1.50;;;;;;;;;;5075792;28;20024;-20
2023/12/09 00:19:03;;;;;;;5.18;1.63;;;;;;;;;;5076221;28;20032;-17
2023/12/09 00:21:29;;;;;;;2.80;1.90;;;;;;;;;;5075425;28;20452;-20
2023/12/09 00:23:57;;;;;;;3.60;1.90;;;;;;;;;;5075573;28;20029;-21
2023/12/09 00:26:23;;;;;;;2.40;1.73;;;;;;;;;;5075863;28;20016;-20
2023/12/09 00:28:50;;;;;;;3.67;1.65;;;;;;;;;;5075536;28;20052;-20
2023/12/09 00:31:16;;;;;;;1.92;1.65;;;;;;;;;;5075488;28;20054;-21
2023/12/09 00:33:43;;;;;;;2.97;1.60;;;;;;;;;;5075444;28;20437;-21
2023/12/09 00:36:09;;;;;;;3.67;2.03;;;;;;;;;;5075953;28;20108;-18
2023/12/09 00:38:35;;;;;;;5.50;2.28;;;;;;;;;;5075545;28;20332;-18
2023/12/09 00:41:02;;;;;;;4.82;2.05;;;;;;;;;;5075567;28;20075;-20
2023/12/09 00:43:28;;;;;;;5.13;1.90;;;;;;;;;;5075188;28;20031;-19
2023/12/09 00:45:54;;;;;;;4.63;1.65;;;;;;;;;;5075465;28;20123;-20
2023/12/09 00:48:20;;;;;;;1.88;1.23;;;;;;;;;;5075215;28;20035;-20
2023/12/09 00:50:46;;;;;;;3.50;1.75;;;;;;;;;;5075660;28;20033;-18
2023/12/09 00:53:12;;;;;;;3.53;2.15;;;;;;;;;;5075291;28;20024;-18
2023/12/09 00:55:38;;;;;;;2.22;1.50;;;;;;;;;;5075348;28;20029;-19
2023/12/09 00:58:05;;;;;;;2.20;1.40;;;;;;;;;;5074984;28;20081;-20
2023/12/09 01:00:31;;;;;;;2.67;2.15;;;;;;;;;;5075287;28;20025;-20
2023/12/09 01:02:57;;;;;;;2.40;1.40;;;;;;;;;;5075198;28;20028;-19
2023/12/09 01:05:23;;;;;;;4.25;1.55;;;;;;;;;;5074829;28;20072;-20
2023/12/09 01:07:49;;;;;;;2.45;1.70;;;;;;;;;;5075207;28;20360;-22
2023/12/09 01:10:15;;;;;;;3.85;1.48;;;;;;;;;;5074829;28;20103;-20
2023/12/09 01:12:41;;;;;;;3.80;2.20;;;;;;;;;;5075043;28;20029;-20
2023/12/09 01:15:08;;;;;;;6.75;1.60;;;;;;;;;;5075094;28;20020;-18
2023/12/09 01:17:34;;;;;;;5.10;2.05;;;;;;;;;;5075030;28;20103;-19
2023/12/09 01:20:00;;;;;;;2.22;1.45;;;;;;;;;;5074944;28;20031;-20
2023/12/09 01:22:26;;;;;;;4.93;1.45;;;;;;;;;;5074649;28;20363;-21
2023/12/09 01:24:52;;;;;;;3.58;2.15;;;;;;;;;;5074696;28;20025;-22
2023/12/09 01:27:19;;;;;;;3.35;1.80;;;;;;;;;;5074588;28;20074;-19
2023/12/09 01:29:45;;;;;;;4.22;1.52;;;;;;;;;;5074661;28;20053;-17
2023/12/09 01:32:11;;;;;;;3.05;1.83;;;;;;;;;;5073969;28;20111;-19
2023/12/09 01:34:39;;;;;;;2.33;1.38;;;;;;;;;;5075390;28;20024;-20
2023/12/09 01:37:06;;;;;;;1.95;1.55;;;;;;;;;;5074554;28;20016;-18
2023/12/09 01:39:32;;;;;;;2.67;1.90;;;;;;;;;;5074426;28;20032;-21
2023/12/09 01:42:00;;;;;;;1.63;1.25;;;;;;;;;;5074444;28;20021;-21
2023/12/09 01:44:26;;;;;;;5.70;2.03;;;;;;;;;;5074718;28;20024;-20
2023/12/09 01:46:52;;;;;;;4.18;2.50;;;;;;;;;;5074506;28;20016;-22
2023/12/09 01:49:18;;;;;;;4.82;1.40;;;;;;;;;;5074481;28;20025;-20
2023/12/09 01:51:44;;;;;;;2.72;2.47;;;;;;;;;;5074458;28;20150;-20
2023/12/09 01:54:11;;;;;;;3.58;1.45;;;;;;;;;;5074346;28;20340;-18
2023/12/09 01:56:37;;;;;;;2.70;1.63;;;;;;;;;;5073433;28;20451;-19
2023/12/09 01:59:03;;;;;;;3.50;1.80;;;;;;;;;;5074574;28;20025;-21
2023/12/09 02:01:30;;;;;;;4.25;1.70;;;;;;;;;;5073377;28;20103;-19
2023/12/09 02:03:57;;;;;;;3.60;2.13;;;;;;;;;;5074049;28;20052;-22
2023/12/09 02:06:23;;;;;;;3.20;1.95;;;;;;;;;;5074277;28;20048;-22
2023/12/09 02:08:50;;;;;;;8.98;1.58;;;;;;;;;;5074530;28;20035;-19
2023/12/09 02:11:38;;;;;;;2.67;2.05;;;;;;;;;;5074173;28;20028;-20
2023/12/09 02:14:11;;;;;;;3.63;1.67;;;;;;;;;;5074143;28;20428;-21
2023/12/09 02:16:43;;;;;;;5.68;1.83;;;;;;;;;;5074194;28;20103;-20
2023/12/09 02:19:12;;;;;;;4.10;1.98;;;;;;;;;;5074360;28;20033;-18
2023/12/09 02:22:01;;;;;;;2.75;1.50;;;;;;;;;;5074140;28;20098;-21
2023/12/09 02:24:27;;;;;;;2.17;1.60;;;;;;;;;;5074158;28;20111;-21
2023/12/09 02:26:53;;;;;;;1.58;1.42;;;;;;;;;;5074045;28;20166;-18
2023/12/09 02:29:20;;;;;;;5.38;2.40;;;;;;;;;;5073123;28;20071;-19
2023/12/09 02:31:51;;;;;;;2.72;1.48;;;;;;;;;;5074075;28;20099;-21
2023/12/09 02:34:18;;;;;;;4.82;1.65;;;;;;;;;;5074346;28;20048;-21
2023/12/09 02:36:45;;;;;;;2.20;1.80;;;;;;;;;;5073068;28;20059;-18
2023/12/09 02:39:13;;;;;;;3.17;1.50;;;;;;;;;;5073871;28;20032;-19
2023/12/09 02:41:41;;;;;;;4.22;2.00;;;;;;;;;;5073970;28;20031;-21
2023/12/09 02:44:07;;;;;;;5.40;2.35;;;;;;;;;;5076145;28;20040;-21
2023/12/09 02:46:34;;;;;;;2.63;1.77;;;;;;;;;;5077782;28;20028;-22
2023/12/09 02:49:00;;;;;;;4.03;1.33;;;;;;;;;;5077566;28;20340;-22
2023/12/09 02:51:26;;;;;;;4.90;1.98;;;;;;;;;;5077461;28;20039;-18
2023/12/09 02:53:54;;;;;;;2.28;1.10;;;;;;;;;;5077371;28;20028;-18
2023/12/09 02:56:20;;;;;;;2.95;1.63;;;;;;;;;;5076370;28;20115;-18
2023/12/09 02:58:47;;;;;;;2.30;1.20;;;;;;;;;;5077247;28;20024;-19
2023/12/09 03:01:13;;;;;;;2.13;1.92;;;;;;;;;;5077533;28;20029;-21
2023/12/09 03:03:39;;;;;;;2.22;1.65;;;;;;;;;;5077813;28;20327;-21
2023/12/09 03:06:05;;;;;;;3.25;1.63;;;;;;;;;;5077460;28;20020;-20
2023/12/09 03:08:32;;;;;;;2.65;1.73;;;;;;;;;;5077710;28;20025;-18
2023/12/09 03:10:58;;;;;;;2.40;1.67;;;;;;;;;;5077118;28;20032;-18
2023/12/09 03:13:25;;;;;;;2.90;1.83;;;;;;;;;;5076985;28;20039;-17
2023/12/09 03:15:51;;;;;;;1.63;1.35;;;;;;;;;;5077332;28;20355;-20
2023/12/09 03:18:18;;;;;;;2.17;1.20;;;;;;;;;;5077108;28;20049;-20
2023/12/09 03:20:44;;;;;;;1.58;1.20;;;;;;;;;;5076967;28;20332;-19
2023/12/09 03:23:10;;;;;;;2.78;1.55;;;;;;;;;;5077107;28;20116;-21
2023/12/09 03:25:37;;;;;;;2.15;1.85;;;;;;;;;;5077139;28;20017;-20
2023/12/09 03:28:03;;;;;;;1.50;1.23;;;;;;;;;;5076853;28;20422;-20
2023/12/09 03:30:29;;;;;;;4.22;1.35;;;;;;;;;;5077035;28;20354;-20
2023/12/09 03:32:55;;;;;;;2.53;1.40;;;;;;;;;;5076693;28;20364;-21
2023/12/09 03:35:21;;;;;;;2.25;1.48;;;;;;;;;;5076925;28;20017;-20
2023/12/09 03:37:48;;;;;;;2.15;1.63;;;;;;;;;;5076768;28;20021;-21
2023/12/09 03:40:14;;;;;;;2.08;1.10;;;;;;;;;;5076524;28;20028;-18
2023/12/09 03:42:40;;;;;;;2.95;1.50;;;;;;;;;;5075519;28;20355;-17
2023/12/09 03:45:06;;;;;;;3.03;1.77;;;;;;;;;;5076478;28;20017;-18
2023/12/09 03:47:33;;;;;;;1.63;1.40;;;;;;;;;;5076448;28;20123;-20
2023/12/09 03:49:59;;;;;;;1.45;1.35;;;;;;;;;;5076427;28;20024;-21
2023/12/09 03:52:25;;;;;;;7.38;1.95;;;;;;;;;;5076629;28;20100;-20
2023/12/09 03:54:51;;;;;;;1.60;1.25;;;;;;;;;;5075428;28;20035;-22
2023/12/09 03:57:17;;;;;;;2.65;1.63;;;;;;;;;;5076191;28;20030;-18
2023/12/09 03:59:44;;;;;;;3.03;1.33;;;;;;;;;;5077417;28;20032;-20
2023/12/09 04:02:10;;;;;;;2.97;2.47;;;;;;;;;;5076285;28;20333;-21
2023/12/09 04:04:40;;;;;;;2.47;1.38;;;;;;;;;;5076221;28;20048;-19
2023/12/09 04:07:06;;;;;;;3.65;1.50;;;;;;;;;;5076301;28;20385;-20
2023/12/09 04:09:32;;;;;;;2.05;1.15;;;;;;;;;;5076272;28;20405;-21
2023/12/09 04:11:58;;;;;;;1.77;1.42;;;;;;;;;;5075871;28;20059;-20
2023/12/09 04:14:26;;;;;;;2.78;1.42;;;;;;;;;;5075856;28;20042;-18
2023/12/09 04:16:52;;;;;;;2.03;1.50;;;;;;;;;;5075815;28;20082;-20
2023/12/09 04:19:18;;;;;;;2.65;1.75;;;;;;;;;;5075671;28;20024;-17
2023/12/09 04:21:44;;;;;;;3.22;1.60;;;;;;;;;;5075757;28;20035;-18
2023/12/09 04:24:10;;;;;;;3.28;2.20;;;;;;;;;;5075858;28;20025;-21
2023/12/09 04:26:36;;;;;;;3.58;1.90;;;;;;;;;;5075675;28;20452;-20
2023/12/09 04:29:06;;;;;;;1.85;1.35;;;;;;;;;;5076141;28;20111;-21
2023/12/09 04:31:32;;;;;;;2.75;1.60;;;;;;;;;;5074557;28;20021;-20
2023/12/09 04:33:58;;;;;;;1.35;1.25;;;;;;;;;;5075468;28;20025;-18
2023/12/09 04:36:25;;;;;;;2.15;1.23;;;;;;;;;;5075414;28;20366;-22
2023/12/09 04:38:51;;;;;;;2.38;1.30;;;;;;;;;;5075632;28;20043;-20
2023/12/09 04:41:17;;;;;;;2.80;1.60;;;;;;;;;;5075370;28;20017;-20
2023/12/09 04:43:43;;;;;;;2.67;1.48;;;;;;;;;;5075283;28;20028;-18
2023/12/09 04:46:09;;;;;;;3.72;1.95;;;;;;;;;;5075280;28;20060;-23
2023/12/09 04:48:35;;;;;;;1.58;1.35;;;;;;;;;;5075517;28;20099;-22
2023/12/09 04:51:02;;;;;;;2.97;1.60;;;;;;;;;;5075735;28;20085;-21
2023/12/09 04:53:28;;;;;;;1.90;1.40;;;;;;;;;;5074070;28;20104;-20
2023/12/09 04:55:54;;;;;;;3.47;1.40;;;;;;;;;;5075146;28;20071;-17
2023/12/09 04:58:20;;;;;;;1.92;1.30;;;;;;;;;;5075287;28;20440;-22
2023/12/09 05:00:46;;;;;;;2.13;1.85;;;;;;;;;;5075353;28;20052;-20
2023/12/09 05:03:12;;;;;;;2.35;2.03;;;;;;;;;;5075174;28;20082;-20
2023/12/09 05:05:38;;;;;;;2.30;1.40;;;;;;;;;;5074838;28;20399;-19
2023/12/09 05:08:05;;;;;;;2.08;1.45;;;;;;;;;;5075329;28;20101;-18
2023/12/09 05:10:31;;;;;;;2.10;1.50;;;;;;;;;;5074912;28;20481;-20
2023/12/09 05:12:57;;;;;;;2.05;1.50;;;;;;;;;;5074842;28;20095;-21
2023/12/09 05:15:23;;;;;;;2.35;1.70;;;;;;;;;;5074768;28;20027;-19
2023/12/09 05:17:49;;;;;;;1.75;1.65;;;;;;;;;;5074822;28;20414;-20
2023/12/09 05:20:16;;;;;;;2.45;1.42;;;;;;;;;;5074703;28;20107;-19
2023/12/09 05:22:44;;;;;;;1.77;1.20;;;;;;;;;;5074855;28;20032;-21
2023/12/09 05:25:11;;;;;;;2.20;1.48;;;;;;;;;;5074671;28;20031;-18
2023/12/09 05:27:38;;;;;;;3.88;1.60;;;;;;;;;;5074977;28;20370;-18
2023/12/09 05:30:04;;;;;;;2.80;1.38;;;;;;;;;;5074624;28;20043;-18
2023/12/09 05:32:30;;;;;;;1.95;1.35;;;;;;;;;;5074574;28;20440;-19
2023/12/09 05:34:56;;;;;;;2.35;1.70;;;;;;;;;;5075458;28;20451;-20
2023/12/09 05:37:23;;;;;;;3.55;1.83;;;;;;;;;;5074855;28;20351;-19
2023/12/09 05:39:49;;;;;;;2.22;1.50;;;;;;;;;;5074762;28;20401;-20
2023/12/09 05:42:15;;;;;;;2.35;1.30;;;;;;;;;;5074524;28;20075;-18
2023/12/09 05:44:41;;;;;;;2.88;1.50;;;;;;;;;;5074505;28;20108;-22
2023/12/09 05:47:07;;;;;;;1.58;1.17;;;;;;;;;;5074733;28;20103;-22
2023/12/09 05:49:33;;;;;;;2.65;1.27;;;;;;;;;;5074473;28;20538;-21
2023/12/09 05:52:00;;;;;;;2.22;1.40;;;;;;;;;;5074388;28;20067;-20
2023/12/09 05:54:26;;;;;;;3.17;1.25;;;;;;;;;;5074426;28;20020;-18
2023/12/09 05:56:52;;;;;;;2.10;1.23;;;;;;;;;;5074694;28;20060;-19
2023/12/09 05:59:18;;;;;;;3.45;2.15;;;;;;;;;;5074300;28;20032;-20
2023/12/09 06:01:45;;;;;;;1.55;1.33;;;;;;;;;;5074391;28;20052;-20
2023/12/09 06:04:11;;;;;;;2.80;1.30;;;;;;;;;;5074021;28;20133;-19
2023/12/09 06:06:37;;;;;;;5.97;2.20;;;;;;;;;;5074290;28;20016;-20
2023/12/09 06:09:04;;;;;;;2.10;1.25;;;;;;;;;;5074545;28;20028;-19
2023/12/09 06:11:31;;;;;;;1.73;1.38;;;;;;;;;;5074550;28;20099;-20
2023/12/09 06:13:57;;;;;;;1.70;1.60;;;;;;;;;;5074198;28;20021;-21
2023/12/09 06:16:23;;;;;;;2.28;2.08;;;;;;;;;;5074222;28;20364;-20
2023/12/09 06:18:49;;;;;;;2.58;1.73;;;;;;;;;;5076032;28;20024;-23
2023/12/09 06:21:25;;;;;;;3.75;1.48;;;;;;;;;;5078079;28;20394;-20
2023/12/09 06:23:52;;;;;;;2.80;2.00;;;;;;;;;;5078225;28;20032;-20
2023/12/09 06:26:19;;;;;;;1.75;1.08;;;;;;;;;;5077934;28;20096;-20
2023/12/09 06:28:46;;;;;;;1.48;1.38;;;;;;;;;;5078220;28;20082;-19
2023/12/09 06:31:12;;;;;;;1.65;1.50;;;;;;;;;;5078140;28;20451;-20
2023/12/09 06:33:38;;;;;;;3.25;1.42;;;;;;;;;;5078056;28;20332;-18
2023/12/09 06:36:05;;;;;;;3.22;1.45;;;;;;;;;;5077729;28;20474;-22
2023/12/09 06:38:34;;;;;;;2.47;2.00;;;;;;;;;;5078187;28;20028;-18
2023/12/09 06:41:00;;;;;;;1.70;1.20;;;;;;;;;;5077961;28;20355;-18
2023/12/09 06:43:26;;;;;;;1.40;1.13;;;;;;;;;;5077589;28;20063;-19
2023/12/09 06:45:52;;;;;;;1.50;1.13;;;;;;;;;;5077549;28;20025;-21
2023/12/09 06:48:19;;;;;;;2.85;1.40;;;;;;;;;;5077552;28;20047;-19
2023/12/09 06:50:45;;;;;;;1.75;1.10;;;;;;;;;;5077770;28;20020;-23
2023/12/09 06:53:13;;;;;;;1.73;1.20;;;;;;;;;;5077406;28;20355;-18
2023/12/09 06:55:39;;;;;;;3.15;1.30;;;;;;;;;;5078187;28;20024;-21
2023/12/09 06:58:06;;;;;;;1.58;1.20;;;;;;;;;;5077661;28;20021;-23
2023/12/09 07:00:32;;;;;;;2.95;1.50;;;;;;;;;;5077276;28;20036;-18
2023/12/09 07:02:58;;;;;;;2.92;1.45;;;;;;;;;;5077240;28;20355;-18
2023/12/09 07:05:26;;;;;;;1.73;1.33;;;;;;;;;;5077029;28;20430;-21
2023/12/09 07:07:52;;;;;;;1.42;1.08;;;;;;;;;;5077475;28;20024;-23
2023/12/09 07:10:18;;;;;;;1.90;1.50;;;;;;;;;;5077147;28;20035;-22
2023/12/09 07:12:44;;;;;;;1.73;1.50;;;;;;;;;;5077616;28;20359;-21
2023/12/09 07:15:12;;;;;;;2.30;1.35;;;;;;;;;;5077092;28;20028;-20
2023/12/09 07:17:38;;;;;;;1.80;1.25;;;;;;;;;;5077282;28;20028;-22
2023/12/09 07:20:05;;;;;;;1.33;1.10;;;;;;;;;;5077164;28;20043;-22
2023/12/09 07:22:32;;;;;;;2.15;1.25;;;;;;;;;;5077375;28;20097;-21
2023/12/09 07:24:58;;;;;;;1.27;1.17;;;;;;;;;;5077402;28;20095;-18
2023/12/09 07:27:25;;;;;;;1.50;1.20;;;;;;;;;;5076849;28;20024;-18
2023/12/09 07:29:51;;;;;;;2.22;1.48;;;;;;;;;;5075780;28;20032;-18
2023/12/09 07:32:17;;;;;;;2.10;1.27;;;;;;;;;;5076901;28;20031;-19
2023/12/09 07:34:43;;;;;;;2.80;1.40;;;;;;;;;;5076726;28;20031;-21
2023/12/09 07:37:11;;;;;;;2.03;1.45;;;;;;;;;;5076651;28;20046;-19
2023/12/09 07:39:37;;;;;;;1.33;1.08;;;;;;;;;;5076545;28;20052;-22
2023/12/09 07:42:04;;;;;;;2.25;1.25;;;;;;;;;;5076784;28;20376;-21
2023/12/09 07:44:30;;;;;;;3.38;1.50;;;;;;;;;;5076435;28;20017;-20
2023/12/09 07:46:56;;;;;;;1.17;0.93;;;;;;;;;;5076473;28;20460;-17
2023/12/09 07:49:22;;;;;;;3.15;1.40;;;;;;;;;;5076399;28;20044;-19
2023/12/09 07:51:48;;;;;;;1.67;1.33;;;;;;;;;;5076568;28;20020;-20
2023/12/09 07:54:15;;;;;;;1.58;1.30;;;;;;;;;;5076325;28;20107;-23
2023/12/09 07:56:41;;;;;;;6.70;1.40;;;;;;;;;;5076312;28;20020;-20
2023/12/09 07:59:07;;;;;;;1.42;1.33;;;;;;;;;;5076150;28;20029;-18
2023/12/09 08:01:35;;;;;;;0.95;0.90;;;;;;;;;;5076172;28;20020;-21
2023/12/09 08:04:01;;;;;;;1.38;1.27;;;;;;;;;;5075811;28;20052;-18
2023/12/09 08:06:27;;;;;;;1.67;1.30;;;;;;;;;;5076633;28;20074;-22
2023/12/09 08:08:53;;;;;;;2.67;1.38;;;;;;;;;;5076043;28;20029;-20
2023/12/09 08:11:19;;;;;;;2.45;1.52;;;;;;;;;;5075954;28;20035;-19
2023/12/09 08:13:46;;;;;;;1.58;1.25;;;;;;;;;;5076145;28;20036;-20
2023/12/09 08:16:13;;;;;;;1.80;1.00;;;;;;;;;;5075911;28;20447;-19
2023/12/09 08:18:42;;;;;;;1.30;1.00;;;;;;;;;;5076026;28;20033;-19
2023/12/09 08:21:08;;;;;;;1.90;1.08;;;;;;;;;;5075734;28;20032;-19
2023/12/09 08:23:34;;;;;;;2.22;1.27;;;;;;;;;;5075640;28;20021;-20
2023/12/09 08:26:00;;;;;;;1.65;1.48;;;;;;;;;;5076273;28;20028;-20
2023/12/09 08:28:27;;;;;;;3.38;1.60;;;;;;;;;;5075581;28;20056;-22
2023/12/09 08:30:53;;;;;;;3.47;1.55;;;;;;;;;;5075854;28;20020;-19
2023/12/09 08:33:19;;;;;;;1.77;1.52;;;;;;;;;;5075745;28;20089;-23
2023/12/09 08:35:46;;;;;;;1.55;1.42;;;;;;;;;;5075776;28;20017;-20
2023/12/09 08:38:12;;;;;;;2.05;1.63;;;;;;;;;;5075377;28;20028;-18
2023/12/09 08:40:38;;;;;;;1.70;1.48;;;;;;;;;;5075455;28;20040;-17
2023/12/09 08:43:04;;;;;;;3.22;1.25;;;;;;;;;;5075265;28;20052;-18
2023/12/09 08:45:31;;;;;;;1.35;1.20;;;;;;;;;;5075335;28;20025;-23
2023/12/09 08:47:58;;;;;;;1.38;1.02;;;;;;;;;;5075549;28;20394;-20
2023/12/09 08:50:24;;;;;;;1.88;1.20;;;;;;;;;;5075493;28;20028;-20
2023/12/09 08:52:51;;;;;;;1.15;1.00;;;;;;;;;;5075178;28;20029;-19
2023/12/09 08:55:17;;;;;;;3.95;1.48;;;;;;;;;;5075090;28;20029;-19
2023/12/09 08:57:43;;;;;;;1.63;1.08;;;;;;;;;;5075671;28;20044;-20
2023/12/09 09:00:10;;;;;;;2.38;1.10;;;;;;;;;;5075550;28;20427;-20
2023/12/09 09:02:36;;;;;;;4.38;1.15;;;;;;;;;;5075195;28;20091;-18
2023/12/09 09:05:03;;;;;;;2.38;1.42;;;;;;;;;;5075334;28;20075;-19
2023/12/09 09:07:29;;;;;;;1.73;1.15;;;;;;;;;;5074967;28;20024;-21
2023/12/09 09:09:56;;;;;;;1.10;1.00;;;;;;;;;;5074876;28;20032;-21
2023/12/09 09:12:22;;;;;;;2.17;1.08;;;;;;;;;;5075025;28;20028;-20
2023/12/09 09:14:48;;;;;;;1.77;1.10;;;;;;;;;;5074883;28;20497;-18
2023/12/09 09:17:16;;;;;;;1.30;1.08;;;;;;;;;;5075609;28;20040;-19
2023/12/09 09:19:42;;;;;;;2.35;1.30;;;;;;;;;;5074699;28;20071;-18
2023/12/09 09:22:08;;;;;;;1.63;1.08;;;;;;;;;;5075119;28;20456;-22
2023/12/09 09:24:34;;;;;;;1.88;1.20;;;;;;;;;;5074738;28;20444;-21
2023/12/09 09:27:00;;;;;;;3.08;1.50;;;;;;;;;;5074761;28;20094;-20
2023/12/09 09:29:27;;;;;;;1.83;1.25;;;;;;;;;;5074944;28;20360;-18
2023/12/09 09:31:53;;;;;;;1.20;1.10;;;;;;;;;;5074522;28;20032;-18
2023/12/09 09:34:19;;;;;;;1.73;1.33;;;;;;;;;;5074620;28;20500;-20
2023/12/09 09:36:45;;;;;;;2.13;1.20;;;;;;;;;;5074620;28;20032;-21
2023/12/09 09:39:12;;;;;;;1.38;1.23;;;;;;;;;;5074784;28;20029;-21
2023/12/09 09:41:45;;;;;;;1.45;1.33;;;;;;;;;;5074566;28;20020;-20
2023/12/09 09:44:15;;;;;;;2.40;2.20;;;;;;;;;;5074488;28;20020;-19
2023/12/09 09:46:42;;;;;;;1.30;0.98;;;;;;;;;;5075073;28;20462;-19
2023/12/09 09:49:12;;;;;;;1.50;1.38;;;;;;;;;;5074511;28;20039;-19
2023/12/09 09:51:43;;;;;;;1.70;1.52;;;;;;;;;;5075062;28;20097;-19
2023/12/09 09:54:09;;;;;;;2.38;1.80;;;;;;;;;;5076696;28;20032;-21
2023/12/09 09:56:36;;;;;;;1.58;0.90;;;;;;;;;;5078586;28;20039;-21
2023/12/09 09:59:03;;;;;;;2.58;1.48;;;;;;;;;;5078424;28;20153;-20
2023/12/09 10:01:31;;;;;;;1.30;0.93;;;;;;;;;;5078461;28;20112;-21
2023/12/09 10:03:57;;;;;;;0.80;0.80;;;;;;;;;;5078195;28;20017;-22
2023/12/09 10:06:25;;;;;;;1.70;1.13;;;;;;;;;;5078672;28;20047;-18
2023/12/09 10:08:51;;;;;;;1.13;1.00;;;;;;;;;;5078858;28;20108;-20
2023/12/09 10:11:17;;;;;;;1.90;1.80;;;;;;;;;;5078310;28;20060;-20
2023/12/09 10:13:46;;;;;;;1.40;1.15;;;;;;;;;;5078215;28;20031;-18
2023/12/09 10:16:13;;;;;;;2.55;1.27;;;;;;;;;;5078296;28;20035;-20
2023/12/09 10:18:44;;;;;;;2.22;1.35;;;;;;;;;;5078373;28;20355;-20
2023/12/09 10:21:11;;;;;;;1.65;1.30;;;;;;;;;;5078183;28;20031;-17
2023/12/09 10:23:37;;;;;;;0.93;0.93;;;;;;;;;;5078196;28;20021;-18
2023/12/09 10:26:04;;;;;;;1.60;1.10;;;;;;;;;;5077991;28;20025;-20
2023/12/09 10:28:31;;;;;;;1.13;1.00;;;;;;;;;;5077988;28;20032;-19
2023/12/09 10:30:57;;;;;;;1.73;1.23;;;;;;;;;;5077909;28;20024;-22
2023/12/09 10:33:23;;;;;;;0.98;0.73;;;;;;;;;;5077809;28;20048;-20
2023/12/09 10:35:50;;;;;;;1.25;1.05;;;;;;;;;;5077808;28;20028;-20
2023/12/09 10:38:16;;;;;;;0.85;0.70;;;;;;;;;;5077971;28;20025;-21
2023/12/09 10:40:42;;;;;;;1.27;1.00;;;;;;;;;;5078280;28;20024;-18
2023/12/09 10:43:08;;;;;;;1.85;1.25;;;;;;;;;;5078164;28;20382;-19
2023/12/09 10:45:35;;;;;;;1.10;1.00;;;;;;;;;;5077923;28;20320;-22
2023/12/09 10:48:01;;;;;;;1.58;0.90;;;;;;;;;;5077619;28;20408;-19
2023/12/09 10:50:27;;;;;;;1.65;0.98;;;;;;;;;;5077549;28;20034;-21
2023/12/09 10:52:53;;;;;;;1.42;1.10;;;;;;;;;;5077705;28;20108;-20
2023/12/09 10:55:19;;;;;;;1.13;1.00;;;;;;;;;;5077719;28;20363;-21
2023/12/09 10:57:47;;;;;;;0.90;0.77;;;;;;;;;;5077671;28;20139;-20
2023/12/09 11:00:15;;;;;;;1.10;1.02;;;;;;;;;;5077806;28;20025;-18
2023/12/09 11:02:42;;;;;;;2.35;1.52;;;;;;;;;;5077237;28;20023;-21
2023/12/09 11:05:12;;;;;;;2.40;1.15;;;;;;;;;;5076744;28;20091;-24
2023/12/09 11:07:40;;;;;;;2.00;1.90;;;;;;;;;;5077576;28;20412;-20
2023/12/09 11:10:06;;;;;;;3.95;1.20;;;;;;;;;;5077256;28;20029;-17
2023/12/09 11:12:33;;;;;;;1.23;0.90;;;;;;;;;;5077017;28;20039;-20
2023/12/09 11:15:07;;;;;;;1.38;1.10;;;;;;;;;;5077372;28;20355;-23
2023/12/09 11:17:35;;;;;;;1.20;0.80;;;;;;;;;;5077325;28;20036;-19
2023/12/09 11:20:06;;;;;;;1.38;1.25;;;;;;;;;;5076959;28;20025;-20
2023/12/09 11:22:36;;;;;;;1.58;1.20;;;;;;;;;;5077112;28;20044;-18
2023/12/09 11:25:04;;;;;;;1.08;0.98;;;;;;;;;;5076006;28;20099;-18
2023/12/09 11:27:33;;;;;;;1.42;1.20;;;;;;;;;;5076868;28;20329;-21
2023/12/09 11:29:59;;;;;;;0.90;0.90;;;;;;;;;;5077109;28;20090;-19
2023/12/09 11:32:25;;;;;;;1.02;1.02;;;;;;;;;;5076986;28;20116;-25
2023/12/09 11:34:52;;;;;;;0.93;0.90;;;;;;;;;;5076758;28;20363;-21
2023/12/09 11:37:18;;;;;;;1.35;0.80;;;;;;;;;;5076663;28;20025;-22
2023/12/09 11:39:45;;;;;;;1.48;0.85;;;;;;;;;;5075629;28;20041;-20
2023/12/09 11:42:11;;;;;;;1.80;0.88;;;;;;;;;;5077089;28;20449;-17
2023/12/09 11:44:37;;;;;;;1.20;1.02;;;;;;;;;;5076743;28;20035;-21
2023/12/09 11:47:04;;;;;;;1.05;0.95;;;;;;;;;;5076392;28;20491;-18
2023/12/09 11:49:31;;;;;;;2.47;1.67;;;;;;;;;;5076471;28;20028;-18
2023/12/09 11:51:57;;;;;;;1.00;0.85;;;;;;;;;;5076294;28;20036;-20
2023/12/09 11:54:24;;;;;;;2.63;1.30;;;;;;;;;;5076360;28;20105;-20
2023/12/09 11:56:50;;;;;;;1.58;0.90;;;;;;;;;;5076560;28;20047;-20
2023/12/09 11:59:16;;;;;;;2.38;1.13;;;;;;;;;;5076217;28;20020;-20
2023/12/09 12:01:42;;;;;;;2.10;2.00;;;;;;;;;;5076755;28;20101;-18
2023/12/09 12:04:08;;;;;;;2.30;1.30;;;;;;;;;;5075922;28;20373;-18
2023/12/09 12:06:36;;;;;;;1.13;0.80;;;;;;;;;;5076386;28;20021;-22
2023/12/09 12:09:05;;;;;;;1.35;1.17;;;;;;;;;;5076378;28;20108;-19
2023/12/09 12:11:33;;;;;;;1.00;0.93;;;;;;;;;;5075984;28;20044;-19
2023/12/09 12:14:00;;;;;;;1.30;1.00;;;;;;;;;;5075878;28;20067;-22
2023/12/09 12:16:26;;;;;;;1.23;0.95;;;;;;;;;;5075131;28;20028;-22
2023/12/09 12:18:55;;;;;;;2.00;1.13;;;;;;;;;;5075816;28;20032;-19
2023/12/09 12:21:22;;;;;;;1.70;1.00;;;;;;;;;;5076401;28;20036;-19
2023/12/09 12:23:54;;;;;;;1.15;1.05;;;;;;;;;;5075726;28;20025;-21
2023/12/09 12:26:21;;;;;;;1.52;0.90;;;;;;;;;;5075997;28;20016;-20
2023/12/09 12:28:49;;;;;;;1.10;1.00;;;;;;;;;;5075668;28;20043;-20
2023/12/09 12:31:15;;;;;;;1.23;0.95;;;;;;;;;;5075915;28;20375;-21
2023/12/09 12:33:42;;;;;;;1.45;0.82;;;;;;;;;;5075777;28;20085;-20
2023/12/09 12:36:08;;;;;;;1.13;0.82;;;;;;;;;;5075571;28;20027;-20
2023/12/09 12:38:35;;;;;;;1.15;1.02;;;;;;;;;;5075690;28;20351;-19
2023/12/09 12:41:02;;;;;;;1.20;0.90;;;;;;;;;;5075726;28;20052;-19
2023/12/09 12:43:30;;;;;;;1.00;0.90;;;;;;;;;;5075278;28;20024;-21
2023/12/09 12:45:58;;;;;;;1.48;0.90;;;;;;;;;;5075624;28;20024;-19
2023/12/09 12:48:24;;;;;;;2.08;1.10;;;;;;;;;;5075562;28;20028;-18
2023/12/09 12:50:50;;;;;;;1.40;1.00;;;;;;;;;;5075522;28;20481;-17
2023/12/09 12:53:22;;;;;;;1.13;1.02;;;;;;;;;;5075114;28;20021;-18
2023/12/09 12:55:48;;;;;;;1.20;1.10;;;;;;;;;;5075118;28;20036;-20
2023/12/09 12:58:15;;;;;;;2.15;1.20;;;;;;;;;;5075886;28;20127;-23
2023/12/09 13:00:41;;;;;;;1.15;1.10;;;;;;;;;;5075249;28;20024;-21
2023/12/09 13:03:08;;;;;;;1.30;1.17;;;;;;;;;;5074974;28;20020;-20
2023/12/09 13:05:37;;;;;;;1.17;1.02;;;;;;;;;;5074761;28;20048;-20
2023/12/09 13:08:04;;;;;;;1.40;1.00;;;;;;;;;;5074955;28;20368;-20
2023/12/09 13:10:30;;;;;;;1.30;0.98;;;;;;;;;;5074896;28;20108;-21
2023/12/09 13:12:56;;;;;;;1.00;0.90;;;;;;;;;;5075112;28;20086;-20
2023/12/09 13:15:22;;;;;;;1.02;1.00;;;;;;;;;;5074818;28;20032;-21
2023/12/09 13:17:49;;;;;;;1.13;0.80;;;;;;;;;;5073857;28;20021;-22
2023/12/09 13:20:15;;;;;;;1.65;0.93;;;;;;;;;;5074751;28;20025;-18
2023/12/09 13:22:41;;;;;;;1.25;1.15;;;;;;;;;;5074705;28;20079;-18
2023/12/09 13:25:09;;;;;;;1.20;1.10;;;;;;;;;;5074733;28;20099;-20
2023/12/09 13:27:37;;;;;;;1.10;1.00;;;;;;;;;;5074659;28;20091;-20
2023/12/09 13:30:06;;;;;;;1.65;1.40;;;;;;;;;;5074988;28;20031;-20
2023/12/09 13:32:32;;;;;;;1.17;1.08;;;;;;;;;;5074829;28;20021;-18
2023/12/09 13:34:58;;;;;;;0.93;0.93;;;;;;;;;;5074918;28;20020;-20
2023/12/09 13:37:25;;;;;;;2.08;1.20;;;;;;;;;;5074618;28;20107;-17
2023/12/09 13:39:51;;;;;;;1.15;1.05;;;;;;;;;;5073594;28;20428;-20
2023/12/09 13:42:17;;;;;;;0.88;0.80;;;;;;;;;;5074484;28;20033;-19
2023/12/09 13:44:43;;;;;;;1.13;1.02;;;;;;;;;;5074531;28;20087;-20
2023/12/09 13:47:10;;;;;;;3.53;1.75;;;;;;;;;;5075134;28;20352;-19
2023/12/09 13:49:36;;;;;;;1.05;0.80;;;;;;;;;;5075023;28;20035;-19
2023/12/09 13:52:02;;;;;;;1.10;0.90;;;;;;;;;;5074432;28;20082;-18
2023/12/09 13:54:28;;;;;;;1.00;0.80;;;;;;;;;;5075020;28;20024;-17
2023/12/09 13:56:54;;;;;;;0.80;0.80;;;;;;;;;;5074442;28;20063;-20
2023/12/09 13:59:21;;;;;;;1.05;0.88;;;;;;;;;;5074635;28;20443;-20
2023/12/09 14:01:48;;;;;;;1.10;0.90;;;;;;;;;;5074914;28;20020;-21
2023/12/09 14:04:14;;;;;;;1.90;1.15;;;;;;;;;;5074158;28;20052;-21
2023/12/09 14:06:41;;;;;;;1.25;1.15;;;;;;;;;;5074354;28;20359;-19
2023/12/09 14:09:07;;;;;;;0.82;0.80;;;;;;;;;;5074310;28;20020;-16
2023/12/09 14:11:34;;;;;;;1.02;1.00;;;;;;;;;;5074340;28;20157;-22
2023/12/09 14:14:00;;;;;;;1.33;0.95;;;;;;;;;;5074176;28;20028;-19
2023/12/09 14:16:26;;;;;;;1.40;0.85;;;;;;;;;;5074498;28;20024;-22
2023/12/09 14:18:52;;;;;;;1.40;0.70;;;;;;;;;;5074159;28;20025;-22
2023/12/09 14:21:18;;;;;;;1.25;0.90;;;;;;;;;;5074501;28;20103;-19
2023/12/09 14:23:45;;;;;;;1.10;1.00;;;;;;;;;;5074350;28;20355;-20
2023/12/09 14:26:11;;;;;;;1.02;0.98;;;;;;;;;;5074182;28;20025;-20
2023/12/09 14:28:37;;;;;;;1.00;0.90;;;;;;;;;;5074643;28;20025;-22
2023/12/09 14:31:03;;;;;;;1.30;1.20;;;;;;;;;;5074132;28;20435;-20
2023/12/09 14:33:29;;;;;;;1.23;1.00;;;;;;;;;;5074321;28;20047;-19
2023/12/09 14:35:55;;;;;;;1.00;0.82;;;;;;;;;;5074042;28;20025;-19
2023/12/09 14:38:22;;;;;;;0.80;0.73;;;;;;;;;;5074331;28;20026;-17
2023/12/09 14:40:48;;;;;;;1.48;0.88;;;;;;;;;;5077285;28;20028;-21